Time;durP1;ratioP1;P1;durP2;ratioP2;P2;SDS_P1;SDS_P2;PMS_P1;PMS_P2;Temp;Humidity;BMP_temperature;BMP_pressure;BME280_temperature;BME280_humidity;BME280_pressure;Samples;Min_cycle;Max_cycle;Signal;HPM_P1;HPM_P2
2024/03/18 00:00:38;;;;;;;3.50;1.40;;;;;;;0.44;73.16;100210.99;217481;1263;141476;-70
2024/03/18 00:06:01;;;;;;;5.10;2.80;;;;;;;0.43;72.80;100210.56;217517;1259;140122;-72
2024/03/18 00:11:04;;;;;;;2.30;1.70;;;;;;;0.42;73.25;100209.60;217034;1259;139960;-71
2024/03/18 00:16:08;;;;;;;1.80;1.30;;;;;;;0.41;73.08;100206.91;217330;1259;141260;-71
2024/03/18 00:21:11;;;;;;;2.90;1.50;;;;;;;0.42;73.08;100209.11;217038;1260;140097;-70
2024/03/18 00:26:19;;;;;;;6.10;1.50;;;;;;;0.43;72.84;100206.79;217396;1263;140679;-70
2024/03/18 00:31:22;;;;;;;3.60;1.50;;;;;;;0.42;73.38;100204.20;216986;1262;139839;-68
2024/03/18 00:36:26;;;;;;;7.00;3.10;;;;;;;0.39;72.71;100199.98;217539;1261;140191;-70
2024/03/18 00:41:46;;;;;;;3.10;1.60;;;;;;;0.38;73.27;100195.02;217186;1263;140882;-71
2024/03/18 00:46:49;;;;;;;2.10;1.20;;;;;;;0.34;73.06;100190.13;217253;1259;141032;-72
2024/03/18 00:51:51;;;;;;;3.60;2.90;;;;;;;0.31;73.08;100189.73;217403;1264;140016;-70
2024/03/18 00:56:54;;;;;;;2.20;1.60;;;;;;;0.29;73.25;100187.73;217212;1259;139840;-70
2024/03/18 01:01:57;;;;;;;4.10;3.10;;;;;;;0.27;73.38;100182.68;216961;1263;141102;-71
2024/03/18 01:07:01;;;;;;;6.30;1.60;;;;;;;0.28;73.19;100180.33;217172;1259;139866;-71
2024/03/18 01:12:07;;;;;;;5.10;2.40;;;;;;;0.29;73.49;100181.05;217019;1261;141376;-71
2024/03/18 01:17:11;;;;;;;2.20;1.30;;;;;;;0.30;73.37;100181.15;217670;1259;142563;-71
2024/03/18 01:22:16;;;;;;;3.10;1.10;;;;;;;0.30;73.08;100183.58;216871;1263;140428;-72
2024/03/18 01:27:19;;;;;;;5.40;1.80;;;;;;;0.30;73.31;100181.61;217093;1262;140632;-71
2024/03/18 01:32:23;;;;;;;4.20;2.20;;;;;;;0.29;73.01;100175.67;217908;1263;140208;-71
2024/03/18 01:37:27;;;;;;;3.00;2.50;;;;;;;0.26;73.45;100172.27;217074;1259;139957;-76
2024/03/18 01:42:31;;;;;;;4.00;1.70;;;;;;;0.27;73.66;100171.87;217043;1259;141013;-74
2024/03/18 01:47:34;;;;;;;3.30;1.80;;;;;;;0.25;73.90;100170.64;216948;1264;140696;-74
2024/03/18 01:52:38;;;;;;;5.10;1.90;;;;;;;0.22;73.49;100167.45;218489;1259;140119;-72
2024/03/18 01:57:41;;;;;;;1.80;1.40;;;;;;;0.22;73.86;100163.29;217043;1260;139855;-72
2024/03/18 02:02:51;;;;;;;2.00;1.90;;;;;;;0.20;73.67;100158.52;217141;1259;141873;-73
2024/03/18 02:07:54;;;;;;;3.40;1.80;;;;;;;0.19;74.11;100155.58;217696;1259;140503;-72
2024/03/18 02:13:04;;;;;;;7.00;2.30;;;;;;;0.19;74.00;100153.83;217302;1262;139934;-72
2024/03/18 02:18:08;;;;;;;6.60;1.70;;;;;;;0.16;74.07;100147.66;218021;1264;142597;-72
2024/03/18 02:23:13;;;;;;;4.10;2.20;;;;;;;0.13;74.05;100153.84;217127;1263;141879;-73
2024/03/18 02:28:16;;;;;;;2.50;1.70;;;;;;;0.11;74.02;100156.34;218191;1259;140078;-72
2024/03/18 02:33:19;;;;;;;6.10;1.70;;;;;;;0.11;74.34;100153.53;217124;1264;140223;-72
2024/03/18 02:38:25;;;;;;;3.70;2.70;;;;;;;0.11;74.20;100155.52;216949;1262;140753;-74
2024/03/18 02:43:28;;;;;;;3.60;2.30;;;;;;;0.14;74.27;100149.90;217312;1261;140618;-72
2024/03/18 02:48:32;;;;;;;3.30;2.20;;;;;;;0.17;74.44;100155.59;217228;1259;140925;-71
2024/03/18 02:53:35;;;;;;;5.80;2.40;;;;;;;0.18;74.64;100157.77;217111;1265;140431;-71
2024/03/18 02:58:39;;;;;;;18.20;6.40;;;;;;;0.18;74.47;100155.44;217167;1263;140777;-72
2024/03/18 03:03:43;;;;;;;6.90;3.90;;;;;;;0.22;74.69;100155.42;217749;1259;140721;-71
2024/03/18 03:08:46;;;;;;;5.70;2.50;;;;;;;0.26;74.82;100152.06;217177;1259;140006;-71
2024/03/18 03:13:49;;;;;;;3.90;1.90;;;;;;;0.26;74.64;100148.34;217308;1259;140869;-71
2024/03/18 03:18:53;;;;;;;3.90;1.50;;;;;;;0.23;74.67;100147.41;217569;1263;140129;-71
2024/03/18 03:23:56;;;;;;;2.70;1.70;;;;;;;0.21;74.82;100148.14;217211;1263;140046;-71
2024/03/18 03:29:01;;;;;;;1.70;1.00;;;;;;;0.19;74.57;100144.49;217104;1259;140122;-71
2024/03/18 03:34:04;;;;;;;8.80;1.30;;;;;;;0.17;74.54;100144.58;218471;1259;139714;-72
2024/03/18 03:39:08;;;;;;;4.80;2.90;;;;;;;0.16;74.43;100148.70;219032;1259;139789;-70
2024/03/18 03:44:11;;;;;;;22.50;9.40;;;;;;;0.16;74.44;100149.91;219748;1263;139880;-71
2024/03/18 03:49:20;;;;;;;2.20;1.50;;;;;;;0.17;74.69;100152.29;219234;1259;139531;-71
2024/03/18 03:54:25;;;;;;;2.00;1.20;;;;;;;0.16;74.75;100156.14;219889;1260;139002;-72
2024/03/18 03:59:28;;;;;;;2.70;2.50;;;;;;;0.14;74.54;100151.15;219872;1263;139710;-70
2024/03/18 04:04:31;;;;;;;1.40;1.30;;;;;;;0.14;74.43;100153.27;219561;1259;139090;-72
2024/03/18 04:09:35;;;;;;;8.50;5.20;;;;;;;0.14;74.57;100152.95;220034;1259;139242;-72
2024/03/18 04:14:39;;;;;;;1.10;1.10;;;;;;;0.14;74.35;100149.97;219136;1259;139472;-72
2024/03/18 04:19:42;;;;;;;4.00;3.70;;;;;;;0.13;74.33;100148.30;219658;1259;139563;-70
2024/03/18 04:24:46;;;;;;;2.90;2.10;;;;;;;0.13;74.18;100147.61;219326;1263;139091;-71
2024/03/18 04:29:49;;;;;;;2.70;1.60;;;;;;;0.08;74.32;100143.20;219562;1263;139632;-72
2024/03/18 04:34:53;;;;;;;1.10;1.00;;;;;;;0.05;74.31;100152.24;219326;1259;139494;-70
2024/03/18 04:39:58;;;;;;;6.10;2.50;;;;;;;0.06;74.04;100149.05;219182;1259;139253;-71
2024/03/18 04:45:02;;;;;;;2.10;2.00;;;;;;;0.06;74.19;100150.91;219874;1259;140254;-70
2024/03/18 04:50:14;;;;;;;4.20;1.40;;;;;;;0.05;73.77;100151.79;219066;1263;138880;-69
2024/03/18 04:55:18;;;;;;;0.80;0.80;;;;;;;0.07;73.98;100155.77;219535;1261;139021;-73
2024/03/18 05:00:26;;;;;;;4.60;3.20;;;;;;;0.05;73.67;100152.09;220050;1259;139559;-71
2024/03/18 05:05:32;;;;;;;1.90;1.20;;;;;;;0.07;73.94;100157.47;219112;1263;139843;-69
2024/03/18 05:10:35;;;;;;;1.10;1.00;;;;;;;0.09;74.16;100149.89;219956;1263;139124;-71
2024/03/18 05:15:39;;;;;;;4.00;2.20;;;;;;;0.08;73.97;100152.27;218908;1262;139545;-69
2024/03/18 05:20:42;;;;;;;1.80;1.00;;;;;;;0.08;73.83;100143.39;219262;1264;139731;-69
2024/03/18 05:25:50;;;;;;;4.10;3.80;;;;;;;0.11;74.09;100140.15;219719;1262;140067;-69
2024/03/18 05:30:52;;;;;;;;;;;;;;;0.14;73.99;100142.77;219563;1262;289912;-69
2024/03/18 05:35:55;;;;;;;2.80;2.20;;;;;;;0.15;73.99;100144.21;219582;1261;125306;-69
2024/03/18 05:40:58;;;;;;;1.80;1.40;;;;;;;0.21;73.90;100144.66;219240;1262;139619;-69
2024/03/18 05:46:02;;;;;;;6.40;4.60;;;;;;;0.25;73.92;100142.46;219837;1263;139424;-69
2024/03/18 05:51:06;;;;;;;2.50;1.50;;;;;;;0.30;73.92;100140.02;219040;1260;140672;-71
2024/03/18 05:56:09;;;;;;;2.10;1.80;;;;;;;0.35;74.20;100141.62;219091;1262;140654;-71
2024/03/18 06:01:13;;;;;;;6.80;2.10;;;;;;;0.39;73.99;100144.61;219732;1265;139594;-71
2024/03/18 06:06:17;;;;;;;4.60;2.40;;;;;;;0.41;73.87;100141.95;219251;1260;140025;-69
2024/03/18 06:11:20;;;;;;;3.70;2.30;;;;;;;0.41;73.62;100141.25;219404;1259;139115;-69
2024/03/18 06:16:23;;;;;;;5.40;2.80;;;;;;;0.45;73.86;100140.27;219252;1265;140570;-70
2024/03/18 06:21:32;;;;;;;5.70;3.00;;;;;;;0.50;74.02;100143.22;217611;1262;139746;-69
2024/03/18 06:26:35;;;;;;;4.00;2.10;;;;;;;0.54;73.88;100146.88;217381;1263;141285;-69
2024/03/18 06:31:38;;;;;;;6.90;3.00;;;;;;;0.56;74.00;100144.23;217065;1263;140765;-70
2024/03/18 06:36:41;;;;;;;5.90;4.10;;;;;;;0.56;73.72;100146.06;217119;1259;140092;-69
2024/03/18 06:41:45;;;;;;;8.50;1.80;;;;;;;0.58;73.82;100141.51;216966;1262;139760;-70
2024/03/18 06:46:49;;;;;;;3.10;2.40;;;;;;;0.61;74.06;100136.58;217490;1263;141795;-70
2024/03/18 06:51:52;;;;;;;2.60;1.90;;;;;;;0.63;73.55;100134.31;217199;1260;140739;-70
2024/03/18 06:56:55;;;;;;;2.80;2.50;;;;;;;0.59;73.87;100137.72;217236;1263;141765;-71
2024/03/18 07:01:58;;;;;;;5.60;3.30;;;;;;;0.63;73.86;100134.52;217380;1260;140424;-69
2024/03/18 07:07:02;;;;;;;10.40;5.20;;;;;;;0.62;73.88;100133.73;217325;1265;221138;-73
2024/03/18 07:12:05;;;;;;;1.90;1.20;;;;;;;0.62;73.50;100134.06;217437;1263;141283;-71
2024/03/18 07:17:13;;;;;;;1.90;1.70;;;;;;;0.66;73.87;100131.31;217216;1261;141565;-70
2024/03/18 07:22:16;;;;;;;4.20;1.50;;;;;;;0.72;73.94;100131.48;217044;1263;140155;-73
2024/03/18 07:27:20;;;;;;;8.30;3.60;;;;;;;0.77;73.85;100134.65;217096;1265;140415;-71
2024/03/18 07:32:27;;;;;;;7.60;2.90;;;;;;;0.79;73.77;100137.54;217212;1263;209834;-70
2024/03/18 07:37:31;;;;;;;3.80;1.60;;;;;;;0.85;73.39;100137.09;217372;1260;139933;-73
2024/03/18 07:42:33;;;;;;;2.00;1.30;;;;;;;0.91;73.85;100137.49;217267;1263;139592;-68
2024/03/18 07:47:38;;;;;;;8.60;1.50;;;;;;;0.94;73.48;100139.09;217315;1259;140223;-71
2024/03/18 07:52:41;;;;;;;3.10;2.30;;;;;;;0.99;73.85;100139.36;217929;1265;139810;-71
2024/03/18 07:57:44;;;;;;;2.00;1.50;;;;;;;1.04;73.63;100140.87;217411;1263;141666;-70
2024/03/18 08:02:48;;;;;;;1.80;1.40;;;;;;;1.06;73.45;100142.59;217338;1263;140349;-69
2024/03/18 08:07:52;;;;;;;2.30;1.70;;;;;;;1.12;73.58;100143.17;217514;1260;139820;-72
2024/03/18 08:12:56;;;;;;;3.00;1.70;;;;;;;1.14;73.67;100137.44;217099;1263;139627;-72
2024/03/18 08:17:59;;;;;;;1.70;1.40;;;;;;;1.16;73.35;100137.05;217186;1265;139852;-73
2024/03/18 08:23:02;;;;;;;4.70;2.80;;;;;;;1.25;73.84;100131.68;217182;1264;140256;-71
2024/03/18 08:28:05;;;;;;;4.80;1.80;;;;;;;1.37;73.99;100126.92;217239;1261;140236;-71
2024/03/18 08:33:09;;;;;;;1.60;1.30;;;;;;;1.44;73.46;100123.02;217361;1261;141108;-71
2024/03/18 08:38:12;;;;;;;6.30;2.20;;;;;;;1.57;73.65;100127.15;217180;1263;140536;-71
2024/03/18 08:43:15;;;;;;;5.80;2.60;;;;;;;1.65;73.07;100127.70;217599;1263;140894;-70
2024/03/18 08:48:19;;;;;;;8.70;2.70;;;;;;;1.65;73.33;100130.65;217079;1264;139635;-72
2024/03/18 08:53:21;;;;;;;3.10;2.20;;;;;;;1.67;73.09;100132.48;217415;1263;141104;-71
2024/03/18 08:58:24;;;;;;;4.70;2.70;;;;;;;1.66;73.06;100129.11;217227;1260;141331;-71
2024/03/18 09:03:27;;;;;;;6.60;2.70;;;;;;;1.68;72.91;100128.64;217389;1261;139886;-69
2024/03/18 09:08:30;;;;;;;8.20;3.80;;;;;;;1.73;73.27;100129.46;217253;1264;140217;-73
2024/03/18 09:13:33;;;;;;;5.50;2.60;;;;;;;1.82;73.37;100130.26;217367;1260;139699;-71
2024/03/18 09:18:37;;;;;;;4.60;4.20;;;;;;;1.89;73.20;100130.98;217261;1261;140266;-74
2024/03/18 09:23:40;;;;;;;6.20;2.20;;;;;;;1.97;73.05;100131.29;217454;1263;139565;-70
2024/03/18 09:28:44;;;;;;;3.20;2.10;;;;;;;1.99;72.73;100131.44;217262;1259;140419;-72
2024/03/18 09:33:47;;;;;;;3.00;2.40;;;;;;;1.95;72.73;100132.64;217471;1260;142447;-73
2024/03/18 09:38:50;;;;;;;2.70;2.40;;;;;;;1.94;72.75;100133.27;217158;1263;140116;-73
2024/03/18 09:43:55;;;;;;;4.90;3.40;;;;;;;1.98;72.72;100133.55;217183;1261;232908;-73
2024/03/18 09:49:00;;;;;;;5.90;4.10;;;;;;;2.01;72.87;100130.16;217255;1263;140969;-75
2024/03/18 09:54:06;;;;;;;5.60;3.70;;;;;;;2.05;72.84;100132.02;217144;1263;140604;-73
2024/03/18 09:59:11;;;;;;;7.90;6.70;;;;;;;2.07;72.74;100134.48;217605;1261;141021;-74
2024/03/18 10:04:14;;;;;;;3.80;3.50;;;;;;;2.09;72.71;100129.91;217972;1260;140174;-74
2024/03/18 10:09:19;;;;;;;2.60;2.10;;;;;;;2.16;72.82;100129.27;217224;1261;140297;-73
2024/03/18 10:14:23;;;;;;;9.70;4.10;;;;;;;2.29;72.70;100123.41;217480;1261;141464;-71
2024/03/18 10:19:27;;;;;;;5.30;4.30;;;;;;;2.44;72.73;100126.95;217180;1260;142326;-71
2024/03/18 10:24:30;;;;;;;7.40;3.40;;;;;;;2.56;72.64;100125.66;216853;1263;140864;-70
2024/03/18 10:29:34;;;;;;;4.20;3.30;;;;;;;2.72;72.61;100125.05;217066;1264;139700;-67
2024/03/18 10:34:40;;;;;;;3.70;3.20;;;;;;;2.81;72.65;100118.91;217088;1263;140323;-69
2024/03/18 10:40:08;;;;;;;8.50;5.00;;;;;;;2.86;72.55;100116.88;217358;1260;140614;-70
2024/03/18 10:45:19;;;;;;;3.90;3.60;;;;;;;2.90;72.43;100114.15;217124;1260;140642;-69
2024/03/18 10:50:24;;;;;;;4.20;3.20;;;;;;;2.93;72.42;100117.13;216849;1260;140136;-69
2024/03/18 10:55:29;;;;;;;7.70;3.80;;;;;;;2.95;72.51;100114.64;217204;1263;139762;-70
2024/03/18 11:00:33;;;;;;;3.90;3.50;;;;;;;3.01;72.67;100114.08;217508;1260;140703;-69
2024/03/18 11:05:37;;;;;;;4.50;3.70;;;;;;;3.12;72.99;100115.39;217320;1264;140152;-69
2024/03/18 11:10:41;;;;;;;4.00;3.00;;;;;;;3.41;73.52;100108.39;216969;1261;139639;-69
2024/03/18 11:15:47;;;;;;;5.10;4.60;;;;;;;3.64;73.56;100107.10;217140;1260;139689;-69
2024/03/18 11:20:52;;;;;;;4.20;3.50;;;;;;;3.63;73.40;100110.27;217489;1260;139944;-69
2024/03/18 11:26:04;;;;;;;4.70;4.30;;;;;;;3.48;73.00;100105.94;218505;1260;140724;-69
2024/03/18 11:31:10;;;;;;;5.80;3.30;;;;;;;3.37;73.36;100103.08;217557;1259;141900;-69
2024/03/18 11:36:17;;;;;;;10.00;4.40;;;;;;;3.32;73.28;100103.68;218090;1261;140712;-70
2024/03/18 11:41:20;;;;;;;9.40;3.30;;;;;;;3.23;73.26;100106.84;218184;1260;139830;-69
2024/03/18 11:46:24;;;;;;;5.40;4.60;;;;;;;3.24;73.65;100102.00;217270;1263;140046;-71
2024/03/18 11:51:27;;;;;;;4.90;4.20;;;;;;;3.26;73.21;100097.83;217128;1259;142723;-69
2024/03/18 11:56:31;;;;;;;5.20;4.10;;;;;;;3.30;73.26;100092.66;217010;1259;139987;-71
2024/03/18 12:01:47;;;;;;;5.10;4.10;;;;;;;3.35;73.08;100089.74;217219;1260;139770;-69
2024/03/18 12:06:50;;;;;;;7.70;3.70;;;;;;;3.33;72.86;100089.34;216999;1263;140246;-68
2024/03/18 12:11:54;;;;;;;3.40;3.20;;;;;;;3.30;72.95;100090.31;217038;1260;141771;-69
2024/03/18 12:16:57;;;;;;;5.50;4.80;;;;;;;3.29;72.72;100091.91;217344;1260;140987;-70
2024/03/18 12:22:09;;;;;;;3.50;3.20;;;;;;;3.26;72.72;100093.36;217050;1259;139942;-69
2024/03/18 12:32:52;;;;;;;5.00;3.50;;;;;;;3.18;73.25;100092.78;216709;1259;139957;-69
2024/03/18 12:37:56;;;;;;;4.20;3.70;;;;;;;3.19;73.44;100094.59;217765;1261;139893;-69
2024/03/18 12:42:59;;;;;;;4.80;4.20;;;;;;;3.21;73.33;100093.52;217174;1260;139943;-69
2024/03/18 12:48:03;;;;;;;3.90;3.30;;;;;;;3.24;73.57;100093.00;217121;1260;141519;-71
2024/03/18 12:53:11;;;;;;;4.70;4.30;;;;;;;3.34;73.46;100087.61;217237;1264;140796;-69
2024/03/18 12:58:14;;;;;;;3.70;3.40;;;;;;;3.38;73.38;100085.84;217551;1260;141906;-70
2024/03/18 13:03:17;;;;;;;4.40;4.00;;;;;;;3.44;73.21;100085.73;217293;1260;140389;-69
2024/03/18 13:08:19;;;;;;;5.20;3.80;;;;;;;3.49;73.18;100081.30;217317;1263;139960;-68
2024/03/18 13:13:25;;;;;;;4.40;3.80;;;;;;;3.48;72.86;100081.86;217808;1259;140290;-70
2024/03/18 13:18:30;;;;;;;3.80;3.00;;;;;;;3.53;72.94;100081.33;217367;1259;140546;-71
2024/03/18 13:23:32;;;;;;;4.70;4.30;;;;;;;3.52;72.66;100083.94;217372;1260;143001;-69
2024/03/18 13:28:36;;;;;;;5.80;5.20;;;;;;;3.52;72.58;100086.70;217369;1259;140255;-72
2024/03/18 13:33:38;;;;;;;6.00;4.10;;;;;;;3.54;72.82;100085.27;217921;1260;140928;-70
2024/03/18 13:38:41;;;;;;;5.50;4.60;;;;;;;3.52;72.49;100087.11;217030;1261;140030;-70
2024/03/18 13:43:44;;;;;;;5.10;3.90;;;;;;;3.49;72.57;100088.08;217242;1259;140423;-68
2024/03/18 13:48:48;;;;;;;7.30;4.40;;;;;;;3.45;72.46;100088.38;217376;1262;142910;-67
2024/03/18 13:53:51;;;;;;;13.70;9.30;;;;;;;3.45;72.67;100086.17;217362;1260;139713;-69
2024/03/18 13:58:55;;;;;;;14.00;7.60;;;;;;;3.41;72.73;100083.20;217175;1259;150688;-69
2024/03/18 14:03:58;;;;;;;12.80;10.80;;;;;;;3.34;72.49;100083.68;217094;1263;140126;-69
2024/03/18 14:09:03;;;;;;;7.80;5.70;;;;;;;3.29;72.51;100081.90;217150;1259;140302;-69
2024/03/18 14:14:06;;;;;;;6.50;4.90;;;;;;;3.24;72.50;100086.67;217160;1259;139628;-70
2024/03/18 14:19:10;;;;;;;7.00;5.10;;;;;;;3.19;72.68;100090.94;217177;1263;139700;-70
2024/03/18 14:24:57;;;;;;;8.40;5.90;;;;;;;3.11;72.70;100092.98;217211;1259;139233;-69
2024/03/18 14:30:03;;;;;;;10.30;5.40;;;;;;;3.04;73.07;100093.23;217232;1262;141516;-69
2024/03/18 14:40:44;;;;;;;7.40;4.90;;;;;;;2.91;73.27;100089.59;217311;1260;140118;-68
2024/03/18 14:45:47;;;;;;;6.10;5.00;;;;;;;2.92;73.36;100090.08;217175;1260;139867;-69
2024/03/18 14:50:51;;;;;;;7.50;5.10;;;;;;;2.92;73.12;100089.23;217114;1259;139801;-68
2024/03/18 14:55:54;;;;;;;6.10;5.40;;;;;;;2.90;73.32;100088.45;217815;1262;141298;-68
2024/03/18 15:00:58;;;;;;;6.90;6.10;;;;;;;2.90;73.14;100086.37;217816;1260;209055;-67
2024/03/18 15:06:01;;;;;;;11.70;6.60;;;;;;;2.90;73.11;100083.41;217544;1263;140311;-68
2024/03/18 15:11:03;;;;;;;10.30;8.00;;;;;;;2.91;73.25;100081.40;217313;1260;140917;-69
2024/03/18 15:16:06;;;;;;;7.40;5.50;;;;;;;2.89;73.18;100080.59;217073;1259;141279;-69
2024/03/18 15:21:09;;;;;;;8.50;5.20;;;;;;;2.86;73.18;100077.35;217107;1262;141885;-67
2024/03/18 15:31:35;;;;;;;10.10;6.80;;;;;;;2.85;73.14;100084.02;217640;1259;139897;-69
2024/03/18 15:36:38;;;;;;;6.90;6.30;;;;;;;2.85;73.32;100084.66;217021;1260;140945;-68
2024/03/18 15:41:41;;;;;;;7.30;4.60;;;;;;;2.86;73.35;100089.61;217124;1260;139352;-68
2024/03/18 15:46:45;;;;;;;5.60;4.80;;;;;;;2.83;73.20;100096.81;217522;1259;139839;-68
2024/03/18 15:51:47;;;;;;;13.70;7.60;;;;;;;2.81;73.36;100100.30;217174;1260;139939;-67
2024/03/18 15:56:51;;;;;;;9.70;6.00;;;;;;;2.83;73.70;100104.29;217134;1261;140463;-68
2024/03/18 16:01:53;;;;;;;5.40;4.90;;;;;;;2.83;73.63;100111.46;217205;1260;141959;-68
2024/03/18 16:06:55;;;;;;;6.20;5.40;;;;;;;2.81;73.63;100112.36;217078;1259;140854;-67
2024/03/18 16:11:58;;;;;;;6.40;5.00;;;;;;;2.81;73.66;100114.86;217040;1264;141664;-67
2024/03/18 16:17:04;;;;;;;12.90;6.70;;;;;;;2.80;73.96;100114.05;217168;1263;139816;-68
2024/03/18 16:22:06;;;;;;;9.40;6.20;;;;;;;2.79;73.73;100118.89;217430;1263;141629;-69
2024/03/18 16:27:09;;;;;;;12.90;5.60;;;;;;;2.77;73.91;100116.52;217441;1259;143184;-68
2024/03/18 16:32:12;;;;;;;7.90;6.10;;;;;;;2.74;73.99;100119.70;217104;1259;140500;-68
2024/03/18 16:37:16;;;;;;;8.20;5.80;;;;;;;2.74;74.20;100126.22;217249;1259;233878;-69
2024/03/18 16:42:19;;;;;;;6.40;5.20;;;;;;;2.69;74.13;100127.31;217116;1259;141703;-69
2024/03/18 16:47:22;;;;;;;7.30;6.00;;;;;;;2.61;74.10;100138.36;217076;1259;140150;-70
2024/03/18 16:52:25;;;;;;;11.70;5.30;;;;;;;2.58;74.44;100141.44;217489;1263;140728;-69
2024/03/18 16:57:28;;;;;;;9.50;5.40;;;;;;;2.57;74.54;100146.51;218376;1263;140901;-68
2024/03/18 17:02:32;;;;;;;10.50;5.50;;;;;;;2.57;74.58;100155.82;217782;1259;141077;-68
2024/03/18 17:07:34;;;;;;;6.90;5.70;;;;;;;2.57;74.62;100159.73;218157;1259;140334;-68
2024/03/18 17:12:38;;;;;;;8.10;5.10;;;;;;;2.55;74.79;100159.22;217777;1259;141008;-69
2024/03/18 17:17:43;;;;;;;10.40;6.20;;;;;;;2.53;74.74;100163.83;218025;1258;140030;-70
2024/03/18 17:22:46;;;;;;;11.00;5.90;;;;;;;2.51;75.13;100168.38;216963;1264;141317;-69
2024/03/18 17:27:49;;;;;;;8.90;5.00;;;;;;;2.52;75.14;100171.89;217027;1263;140471;-69
2024/03/18 17:32:52;;;;;;;7.10;5.30;;;;;;;2.50;75.04;100179.10;216823;1259;466273;-69
2024/03/18 17:37:54;;;;;;;6.10;4.60;;;;;;;2.47;75.20;100187.38;217115;1263;139937;-69
2024/03/18 17:42:58;;;;;;;11.70;6.00;;;;;;;2.42;75.17;100187.38;217063;1259;139812;-71
2024/03/18 17:48:01;;;;;;;12.30;8.10;;;;;;;2.36;75.62;100187.50;218265;1261;140473;-69
2024/03/18 17:53:05;;;;;;;7.20;6.20;;;;;;;2.31;75.51;100191.06;217055;1263;142951;-68
2024/03/18 17:58:09;;;;;;;6.90;6.20;;;;;;;2.28;75.92;100190.88;217089;1259;139673;-68
2024/03/18 18:03:12;;;;;;;8.20;6.00;;;;;;;2.25;76.01;100197.30;216999;1264;140576;-69
2024/03/18 18:08:15;;;;;;;9.10;6.30;;;;;;;2.25;76.30;100198.15;217244;1264;141134;-69
2024/03/18 18:13:17;;;;;;;11.50;6.80;;;;;;;2.25;76.38;100200.27;217135;1260;139747;-69
2024/03/18 18:18:19;;;;;;;10.80;6.30;;;;;;;2.25;76.49;100202.06;217036;1259;142058;-68
2024/03/18 18:23:22;;;;;;;11.60;7.90;;;;;;;2.22;76.50;100208.71;217293;1259;140962;-67
2024/03/18 18:28:25;;;;;;;12.20;7.20;;;;;;;2.18;76.57;100206.29;217249;1260;140660;-69
2024/03/18 18:33:28;;;;;;;11.60;7.40;;;;;;;2.18;76.65;100208.27;217229;1259;140198;-69
2024/03/18 18:38:33;;;;;;;9.90;7.40;;;;;;;2.17;76.70;100207.02;217069;1259;141160;-69
2024/03/18 18:43:37;;;;;;;11.80;7.50;;;;;;;2.15;76.87;100210.34;217176;1262;140961;-69
2024/03/18 18:48:40;;;;;;;11.20;6.90;;;;;;;2.15;77.19;100218.06;217286;1259;140181;-68
2024/03/18 18:53:44;;;;;;;14.80;8.70;;;;;;;2.16;76.75;100219.18;217559;1261;140342;-69
2024/03/18 18:58:47;;;;;;;10.40;7.00;;;;;;;2.17;77.28;100224.17;217290;1259;141328;-69
2024/03/18 19:03:50;;;;;;;15.00;9.70;;;;;;;2.16;77.15;100226.38;217525;1259;140303;-69
2024/03/18 19:08:54;;;;;;;9.50;7.30;;;;;;;2.15;77.38;100221.23;217047;1259;140339;-71
2024/03/18 19:13:57;;;;;;;13.10;8.60;;;;;;;2.14;77.56;100224.37;217186;1259;140634;-69
2024/03/18 19:19:00;;;;;;;12.80;7.40;;;;;;;2.15;77.63;100227.89;218046;1259;139669;-71
2024/03/18 19:24:04;;;;;;;11.90;7.40;;;;;;;2.14;77.93;100226.60;217352;1263;140306;-69
2024/03/18 19:29:07;;;;;;;10.50;7.40;;;;;;;2.15;77.72;100226.31;217156;1263;139916;-70
2024/03/18 19:34:10;;;;;;;9.10;7.50;;;;;;;2.16;78.23;100227.63;217181;1259;140392;-68
2024/03/18 19:39:13;;;;;;;13.50;8.30;;;;;;;2.14;78.04;100228.86;217306;1259;139188;-69
2024/03/18 19:44:17;;;;;;;11.90;6.70;;;;;;;2.09;78.02;100229.24;217386;1259;140530;-69
2024/03/18 19:49:21;;;;;;;11.00;7.80;;;;;;;2.07;77.96;100230.55;217857;1259;140107;-69
2024/03/18 19:54:24;;;;;;;12.50;8.40;;;;;;;2.04;77.92;100227.65;217308;1259;140264;-71
2024/03/18 19:59:28;;;;;;;12.50;8.10;;;;;;;2.04;78.11;100230.70;217120;1259;139952;-70
2024/03/18 20:04:31;;;;;;;15.60;8.20;;;;;;;2.03;78.55;100229.59;217278;1259;139945;-70
2024/03/18 20:09:34;;;;;;;15.70;8.80;;;;;;;2.04;78.66;100237.38;217014;1259;140421;-70
2024/03/18 20:14:36;;;;;;;11.20;7.50;;;;;;;2.02;78.41;100239.80;217187;1259;142303;-69
2024/03/18 20:19:39;;;;;;;15.40;9.10;;;;;;;2.04;78.53;100245.26;217322;1259;140029;-70
2024/03/18 20:24:42;;;;;;;17.10;10.00;;;;;;;2.02;78.65;100245.06;217020;1259;140491;-70
2024/03/18 20:29:46;;;;;;;16.70;9.60;;;;;;;2.00;78.64;100252.00;217752;1259;140517;-71
2024/03/18 20:34:49;;;;;;;13.10;9.70;;;;;;;1.97;78.66;100251.02;217142;1259;140076;-69
2024/03/18 20:39:55;;;;;;;14.60;8.40;;;;;;;1.96;79.00;100253.05;217107;1264;141081;-68
2024/03/18 20:44:58;;;;;;;17.10;10.50;;;;;;;1.98;79.32;100255.55;217608;1263;141288;-67
2024/03/18 20:50:05;;;;;;;16.00;10.10;;;;;;;2.00;79.47;100257.20;217144;1259;142575;-71
2024/03/18 20:55:12;;;;;;;16.10;10.70;;;;;;;2.03;79.52;100256.54;217438;1259;140161;-69
2024/03/18 21:00:15;;;;;;;13.20;8.90;;;;;;;2.05;79.40;100257.26;217046;1260;141363;-69
2024/03/18 21:05:19;;;;;;;14.30;9.60;;;;;;;2.07;79.31;100260.41;217031;1259;153726;-70
2024/03/18 21:10:23;;;;;;;21.80;11.60;;;;;;;2.07;79.54;100263.48;217251;1259;141218;-69
2024/03/18 21:15:26;;;;;;;18.30;11.30;;;;;;;2.10;79.73;100271.91;217123;1259;140277;-69
2024/03/18 21:20:31;;;;;;;16.90;10.60;;;;;;;2.11;79.72;100270.30;217132;1263;140000;-69
2024/03/18 21:25:35;;;;;;;13.10;8.80;;;;;;;2.11;80.01;100270.46;218245;1259;140200;-69
2024/03/18 21:30:38;;;;;;;14.70;9.40;;;;;;;2.11;79.71;100264.52;217282;1259;139898;-69
2024/03/18 21:35:43;;;;;;;15.90;9.90;;;;;;;2.10;79.85;100265.96;217129;1260;140479;-68
2024/03/18 21:40:46;;;;;;;18.90;10.60;;;;;;;2.10;79.89;100265.59;217171;1259;140412;-69
2024/03/18 21:45:59;;;;;;;28.70;13.30;;;;;;;2.09;79.89;100263.95;217039;1259;140808;-67
2024/03/18 21:51:07;;;;;;;19.50;10.50;;;;;;;2.09;79.80;100260.84;217146;1263;141629;-68
2024/03/18 21:56:09;;;;;;;22.70;10.50;;;;;;;2.08;80.04;100255.52;217420;1263;141049;-69
2024/03/18 22:01:12;;;;;;;14.50;10.70;;;;;;;2.10;80.31;100257.77;217285;1262;141985;-67
2024/03/18 22:06:16;;;;;;;17.00;10.00;;;;;;;2.13;80.53;100260.39;217225;1262;140661;-69
2024/03/18 22:11:19;;;;;;;10.60;8.50;;;;;;;2.14;80.48;100266.04;217523;1260;162145;-70
2024/03/18 22:16:23;;;;;;;18.40;11.00;;;;;;;2.10;80.18;100268.98;217059;1263;141044;-69
2024/03/18 22:21:30;;;;;;;17.40;10.10;;;;;;;2.06;80.38;100270.77;217364;1263;140356;-68
2024/03/18 22:26:33;;;;;;;13.50;8.30;;;;;;;2.05;80.82;100276.29;217161;1263;139994;-69
2024/03/18 22:31:36;;;;;;;14.80;8.80;;;;;;;2.03;80.73;100280.04;218080;1259;139891;-70
2024/03/18 22:36:40;;;;;;;17.40;9.80;;;;;;;2.01;80.74;100281.31;217901;1263;140299;-68
2024/03/18 22:41:43;;;;;;;12.30;8.90;;;;;;;1.98;81.08;100279.52;217301;1259;139899;-69
2024/03/18 22:46:47;;;;;;;13.90;8.40;;;;;;;1.93;81.05;100281.94;218458;1259;140470;-70
2024/03/18 22:51:51;;;;;;;13.50;10.80;;;;;;;1.94;81.19;100280.36;217297;1263;140263;-69
2024/03/18 22:56:55;;;;;;;15.40;9.10;;;;;;;1.95;81.57;100284.89;217827;1259;140438;-69
2024/03/18 23:01:59;;;;;;;13.20;8.90;;;;;;;1.96;81.71;100283.02;217884;1262;140150;-68
2024/03/18 23:07:02;;;;;;;16.70;9.90;;;;;;;1.97;81.57;100284.34;217379;1260;139815;-69
2024/03/18 23:12:06;;;;;;;14.30;8.90;;;;;;;1.97;81.61;100291.38;217435;1263;145152;-69
2024/03/18 23:17:09;;;;;;;12.90;8.40;;;;;;;1.98;81.86;100291.83;217795;1259;140238;-68
2024/03/18 23:22:13;;;;;;;15.80;9.70;;;;;;;1.99;81.87;100292.39;217123;1259;140398;-69
2024/03/18 23:27:16;;;;;;;20.00;9.40;;;;;;;1.99;82.20;100292.69;217003;1259;139978;-74